Time;durP1;ratioP1;P1;durP2;ratioP2;P2;SDS_P1;SDS_P2;PMS_P1;PMS_P2;Temp;Humidity;BMP_temperature;BMP_pressure;BME280_temperature;BME280_humidity;BME280_pressure;Samples;Min_cycle;Max_cycle;Signal;HPM_P1;HPM_P2
2022/08/23 00:01:21;;;;;;;4.30;2.20;;;19.90;91.80;;;;;;5030332;28;20413;-85
2022/08/23 00:03:47;;;;;;;2.87;2.20;;;19.80;92.30;;;;;;5021043;28;20186;-85
2022/08/23 00:06:13;;;;;;;4.50;3.10;;;19.80;92.30;;;;;;5033340;28;20963;-85
2022/08/23 00:08:39;;;;;;;5.30;3.10;;;19.70;92.50;;;;;;5023498;28;20531;-83
2022/08/23 00:11:05;;;;;;;4.60;2.20;;;19.60;93.00;;;;;;5028050;28;20194;-83
2022/08/23 00:13:32;;;;;;;4.70;2.60;;;19.60;93.10;;;;;;5039172;28;20476;-83
2022/08/23 00:15:59;;;;;;;3.20;2.47;;;19.50;93.30;;;;;;5029094;28;20417;-83
2022/08/23 00:18:25;;;;;;;4.80;2.73;;;19.50;93.60;;;;;;5022016;28;20794;-83
2022/08/23 00:20:51;;;;;;;2.40;2.03;;;19.50;93.90;;;;;;5021235;28;20413;-85
2022/08/23 00:23:17;;;;;;;7.57;3.00;;;19.40;94.10;;;;;;5021602;28;20427;-85
2022/08/23 00:25:43;;;;;;;3.07;2.23;;;19.40;94.40;;;;;;5022918;28;20910;-85
2022/08/23 00:28:09;;;;;;;7.13;3.07;;;19.30;94.60;;;;;;5022155;28;20344;-85
2022/08/23 00:30:35;;;;;;;3.80;2.80;;;19.20;94.80;;;;;;5027079;28;20473;-85
2022/08/23 00:33:01;;;;;;;7.00;3.17;;;19.20;94.70;;;;;;5033675;28;20468;-84
2022/08/23 00:35:26;;;;;;;6.03;2.77;;;19.10;95.10;;;;;;5024149;28;20425;-85
2022/08/23 00:37:52;;;;;;;5.60;3.03;;;19.00;95.50;;;;;;5024853;28;20901;-85
2022/08/23 00:40:18;;;;;;;7.80;2.60;;;19.00;96.10;;;;;;5026499;28;20189;-85
2022/08/23 00:48:46;;;;;;;4.43;2.70;;;19.00;96.60;;;;;;5021098;28;20455;-85
2022/08/23 00:51:21;;;;;;;3.83;2.37;;;19.10;96.70;;;;;;5023144;28;20476;-84
2022/08/23 00:53:54;;;;;;;4.70;2.80;;;19.10;96.50;;;;;;5026618;28;20459;-85
2022/08/23 00:56:23;;;;;;;3.33;2.30;;;19.10;96.40;;;;;;5038045;28;20421;-85
2022/08/23 00:58:49;;;;;;;10.10;3.07;;;19.10;96.50;;;;;;5038623;28;20424;-85
2022/08/23 01:01:15;;;;;;;2.67;2.30;;;19.10;96.50;;;;;;5040589;28;20401;-84
2022/08/23 01:03:43;;;;;;;3.63;2.50;;;19.10;96.60;;;;;;5041273;28;20412;-85
2022/08/23 01:06:14;;;;;;;6.37;2.63;;;19.10;96.60;;;;;;5039855;28;20961;-85
2022/08/23 01:08:44;;;;;;;5.10;2.30;;;19.00;96.70;;;;;;5028304;28;20433;-85
2022/08/23 01:11:14;;;;;;;2.63;2.43;;;18.90;97.10;;;;;;5027048;28;20494;-85
2022/08/23 01:13:49;;;;;;;3.37;2.70;;;18.80;97.40;;;;;;5035205;28;20475;-85
2022/08/23 01:16:23;;;;;;;4.13;2.57;;;18.70;97.90;;;;;;5023392;28;20432;-85
2022/08/23 01:18:49;;;;;;;6.50;2.93;;;18.70;98.20;;;;;;5020202;28;20420;-85
2022/08/23 01:21:31;;;;;;;2.97;2.30;;;18.80;98.20;;;;;;5021401;28;20416;-85
2022/08/23 01:24:02;;;;;;;5.90;2.93;;;18.70;98.30;;;;;;5026256;28;20436;-85
2022/08/23 01:26:33;;;;;;;7.67;2.87;;;18.60;98.80;;;;;;5024967;28;20456;-84
2022/08/23 01:29:00;;;;;;;3.30;2.43;;;18.50;99.30;;;;;;5024481;28;20514;-85
2022/08/23 01:31:27;;;;;;;3.33;3.00;;;18.40;99.90;;;;;;5026817;28;20443;-85
2022/08/23 01:33:58;;;;;;;3.70;2.67;;;18.40;99.90;;;;;;5025935;28;20527;-84
2022/08/23 01:36:24;;;;;;;5.13;2.80;;;18.40;99.90;;;;;;5025645;28;20448;-85
2022/08/23 01:38:50;;;;;;;7.10;2.60;;;18.40;99.90;;;;;;5039442;28;20408;-85
2022/08/23 01:41:15;;;;;;;8.93;2.70;;;18.30;99.90;;;;;;5038241;28;20443;-85
2022/08/23 01:43:41;;;;;;;5.90;3.17;;;18.30;99.90;;;;;;5037607;28;20643;-85
2022/08/23 01:46:18;;;;;;;6.30;3.27;;;18.40;99.90;;;;;;5039481;28;20173;-85
2022/08/23 01:48:45;;;;;;;2.40;2.20;;;18.40;99.90;;;;;;5039104;28;20162;-85
2022/08/23 01:51:12;;;;;;;4.80;2.97;;;18.40;99.90;;;;;;5039642;28;20496;-85
2022/08/23 01:53:38;;;;;;;3.83;2.63;;;18.20;99.90;;;;;;5031720;28;20548;-85
2022/08/23 01:56:05;;;;;;;9.83;2.63;;;18.10;99.90;;;;;;5024516;28;20463;-85
2022/08/23 01:58:31;;;;;;;3.50;2.63;;;17.90;99.90;;;;;;5035892;28;20626;-83
2022/08/23 02:00:57;;;;;;;3.60;2.50;;;17.80;99.90;;;;;;5040351;28;20411;-85
2022/08/23 02:03:22;;;;;;;4.37;2.10;;;17.70;99.90;;;;;;5040194;28;20408;-85
2022/08/23 02:05:47;;;;;;;5.80;2.80;;;17.60;99.90;;;;;;5038425;28;20572;-83
2022/08/23 02:10:58;;;;;;;4.07;2.63;;;17.60;99.90;;;;;;5024401;28;20792;-85
2022/08/23 02:13:23;;;;;;;4.83;2.63;;;17.60;99.90;;;;;;5024331;28;20477;-85
2022/08/23 02:15:50;;;;;;;5.10;2.97;;;17.30;99.90;;;;;;5025521;28;20190;-85
2022/08/23 02:18:18;;;;;;;9.00;3.60;;;17.30;99.90;;;;;;5018935;28;20198;-85
2022/08/23 02:20:48;;;;;;;3.17;2.87;;;17.30;99.90;;;;;;5018577;28;20948;-85
2022/08/23 02:23:14;;;;;;;3.00;2.70;;;17.40;99.90;;;;;;5022526;28;20570;-85
2022/08/23 02:25:39;;;;;;;3.00;2.40;;;17.40;99.90;;;;;;5022827;28;20490;-85
2022/08/23 02:28:06;;;;;;;4.07;3.07;;;17.30;99.90;;;;;;5026367;28;20198;-85
2022/08/23 02:30:32;;;;;;;7.50;2.90;;;17.20;99.90;;;;;;5038802;28;20888;-85
2022/08/23 02:32:57;;;;;;;6.30;3.27;;;17.30;99.90;;;;;;5038252;28;20483;-85
2022/08/23 02:35:23;;;;;;;4.10;3.00;;;17.30;99.90;;;;;;5028906;28;20224;-85
2022/08/23 02:37:49;;;;;;;3.30;3.00;;;17.20;99.90;;;;;;5023427;28;20654;-85
2022/08/23 02:40:15;;;;;;;4.37;3.53;;;17.20;99.90;;;;;;5035202;28;20456;-85
2022/08/23 02:42:41;;;;;;;6.57;3.13;;;17.10;99.90;;;;;;5020619;28;20192;-85
2022/08/23 02:45:07;;;;;;;7.20;3.03;;;17.10;99.90;;;;;;5026688;28;20870;-85
2022/08/23 02:47:35;;;;;;;3.40;3.07;;;17.00;99.90;;;;;;5018645;28;20229;-85
2022/08/23 02:50:05;;;;;;;3.27;2.73;;;17.00;99.90;;;;;;5019576;28;20416;-85
2022/08/23 02:52:31;;;;;;;3.67;2.20;;;17.00;99.90;;;;;;5017772;28;20505;-84
2022/08/23 02:54:56;;;;;;;4.67;2.40;;;17.00;99.90;;;;;;5022771;28;20512;-85
2022/08/23 02:57:22;;;;;;;3.83;2.73;;;17.00;99.90;;;;;;5021426;28;20848;-84
2022/08/23 02:59:48;;;;;;;2.77;2.50;;;17.00;99.90;;;;;;5019410;28;20167;-85
2022/08/23 03:02:14;;;;;;;4.27;3.07;;;16.90;99.90;;;;;;5023384;28;21043;-85
2022/08/23 03:04:41;;;;;;;2.70;2.23;;;17.00;99.90;;;;;;5024902;28;20417;-85
2022/08/23 03:07:06;;;;;;;4.23;3.07;;;16.90;99.90;;;;;;5021400;28;20207;-84
2022/08/23 03:09:32;;;;;;;4.00;3.17;;;16.80;99.90;;;;;;5023270;28;20444;-85
2022/08/23 03:11:57;;;;;;;5.10;3.60;;;16.90;99.90;;;;;;5023558;28;20194;-85
2022/08/23 03:14:24;;;;;;;6.00;3.40;;;16.80;99.90;;;;;;5023812;28;20670;-85
2022/08/23 03:16:49;;;;;;;7.30;3.37;;;16.80;99.90;;;;;;5024010;28;20210;-85
2022/08/23 03:19:15;;;;;;;6.30;2.43;;;16.70;99.90;;;;;;5025758;28;20425;-85
2022/08/23 03:21:42;;;;;;;4.53;2.60;;;16.50;99.90;;;;;;5024661;28;20178;-85
2022/08/23 03:24:07;;;;;;;3.23;2.50;;;16.40;99.90;;;;;;5024584;28;20192;-85
2022/08/23 03:26:33;;;;;;;6.10;3.37;;;16.30;99.90;;;;;;5023394;28;20440;-83
2022/08/23 03:28:59;;;;;;;6.03;3.20;;;16.20;99.90;;;;;;5022566;28;20566;-83
2022/08/23 03:31:24;;;;;;;5.77;3.60;;;16.10;99.90;;;;;;5022046;28;20432;-83
2022/08/23 03:33:50;;;;;;;4.50;2.73;;;16.10;99.90;;;;;;5025944;28;20200;-83
2022/08/23 03:36:16;;;;;;;4.60;2.67;;;16.00;99.90;;;;;;5022080;28;20201;-83
2022/08/23 03:38:41;;;;;;;6.10;2.97;;;15.90;99.90;;;;;;5022668;28;20209;-83
2022/08/23 03:41:08;;;;;;;3.97;2.93;;;15.90;99.90;;;;;;5023441;28;20437;-83
2022/08/23 03:43:34;;;;;;;4.63;2.80;;;15.90;99.90;;;;;;5030190;28;20562;-83
2022/08/23 03:46:00;;;;;;;5.30;3.40;;;15.80;99.90;;;;;;5020479;28;20409;-83
2022/08/23 03:48:26;;;;;;;5.00;3.30;;;15.80;99.90;;;;;;5022481;28;20416;-83
2022/08/23 03:50:51;;;;;;;4.30;3.90;;;15.60;99.90;;;;;;5026161;28;20174;-83
2022/08/23 03:53:17;;;;;;;2.90;2.50;;;15.60;99.90;;;;;;5025105;28;21168;-83
2022/08/23 03:55:43;;;;;;;5.20;3.57;;;15.50;99.90;;;;;;5020443;28;20192;-81
2022/08/23 03:58:10;;;;;;;7.18;3.45;;;15.40;99.90;;;;;;5023237;28;20198;-84
2022/08/23 04:00:35;;;;;;;4.57;3.72;;;15.30;99.90;;;;;;5023281;28;20934;-84
2022/08/23 04:03:01;;;;;;;4.00;3.43;;;15.30;99.90;;;;;;5021239;28;20188;-82
2022/08/23 04:05:27;;;;;;;4.83;3.60;;;15.20;99.90;;;;;;5025254;28;21135;-83
2022/08/23 04:07:52;;;;;;;5.65;3.72;;;15.20;99.90;;;;;;5024022;28;20891;-83
2022/08/23 04:10:18;;;;;;;6.37;3.03;;;15.10;99.90;;;;;;5023475;28;20190;-83
2022/08/23 04:12:44;;;;;;;4.53;3.75;;;15.10;99.90;;;;;;5020964;28;20485;-84
2022/08/23 04:15:12;;;;;;;4.13;3.10;;;15.10;99.90;;;;;;5019159;28;20194;-84
2022/08/23 04:17:38;;;;;;;9.50;4.03;;;15.10;99.90;;;;;;5015236;28;20480;-84
2022/08/23 04:20:05;;;;;;;4.60;4.00;;;15.10;99.90;;;;;;5013691;28;20175;-83
2022/08/23 04:22:32;;;;;;;4.05;3.63;;;15.00;99.90;;;;;;5015737;28;20953;-83
2022/08/23 04:24:58;;;;;;;4.70;3.22;;;15.00;99.90;;;;;;5018224;28;20177;-83
2022/08/23 04:27:23;;;;;;;5.60;3.43;;;14.90;99.90;;;;;;5024176;28;20198;-83
2022/08/23 04:29:49;;;;;;;7.63;3.97;;;14.80;99.90;;;;;;5022205;28;20425;-83
2022/08/23 04:32:15;;;;;;;4.30;3.83;;;14.80;99.90;;;;;;5020887;28;21584;-82
2022/08/23 04:34:41;;;;;;;4.90;3.27;;;14.80;99.90;;;;;;5017376;28;20216;-82
2022/08/23 04:37:08;;;;;;;4.28;3.80;;;14.80;99.90;;;;;;5021816;28;20225;-82
2022/08/23 04:42:16;;;;;;;4.10;3.00;;;14.80;99.90;;;;;;5023225;28;20174;-84
2022/08/23 04:42:21;;;;;;;5.15;3.85;;;14.80;99.90;;;;;;5017288;28;20411;-84
2022/08/23 04:44:47;;;;;;;4.30;3.55;;;14.90;99.90;;;;;;5020870;28;20245;-83
2022/08/23 04:47:13;;;;;;;7.40;3.33;;;15.00;99.90;;;;;;5021871;28;20274;-83
2022/08/23 04:49:38;;;;;;;4.53;3.87;;;15.40;99.90;;;;;;5022707;28;20206;-82
2022/08/23 04:52:04;;;;;;;5.87;3.43;;;16.10;99.90;;;;;;5023830;28;20196;-82
2022/08/23 04:54:30;;;;;;;4.73;3.30;;;16.90;99.90;;;;;;5029979;28;20206;-81
2022/08/23 04:56:55;;;;;;;3.63;2.90;;;17.70;99.90;;;;;;5026145;28;20197;-81
2022/08/23 04:59:21;;;;;;;5.47;3.40;;;18.60;99.90;;;;;;5025705;28;20424;-82
2022/08/23 05:01:47;;;;;;;4.77;3.27;;;19.00;99.90;;;;;;5025477;28;20518;-82
2022/08/23 05:04:14;;;;;;;10.37;2.90;;;19.70;99.90;;;;;;5025365;28;20816;-82
2022/08/23 05:06:39;;;;;;;3.17;2.87;;;20.80;99.90;;;;;;5024502;28;20440;-82
2022/08/23 05:09:05;;;;;;;4.13;3.77;;;21.40;99.90;;;;;;5025833;28;20440;-83
2022/08/23 05:11:30;;;;;;;4.17;3.50;;;22.40;99.90;;;;;;5026514;28;20174;-83
2022/08/23 05:13:56;;;;;;;4.53;2.83;;;23.60;99.90;;;;;;5025240;28;20210;-81
2022/08/23 05:16:22;;;;;;;3.17;2.63;;;24.70;99.90;;;;;;5025753;28;20201;-81
2022/08/23 05:18:48;;;;;;;4.23;3.40;;;25.60;96.70;;;;;;5025522;28;20201;-82
2022/08/23 05:21:15;;;;;;;8.40;3.70;;;26.20;93.60;;;;;;5027899;28;21581;-82
2022/08/23 05:23:41;;;;;;;3.80;2.97;;;26.40;90.00;;;;;;5029830;28;20262;-82
2022/08/23 05:26:07;;;;;;;4.57;3.40;;;26.10;88.00;;;;;;5028782;28;20424;-81
2022/08/23 05:28:34;;;;;;;6.13;3.57;;;26.30;88.30;;;;;;5027578;28;20937;-82
2022/08/23 05:31:07;;;;;;;5.00;2.50;;;26.70;85.60;;;;;;5035103;28;20193;-81
2022/08/23 05:33:35;;;;;;;2.90;2.70;;;27.40;84.20;;;;;;5026914;28;20457;-82
2022/08/23 05:36:01;;;;;;;3.70;3.10;;;29.50;74.30;;;;;;5024020;28;20977;-81
2022/08/23 05:38:27;;;;;;;6.47;3.97;;;29.50;74.90;;;;;;5025059;28;20508;-83
2022/08/23 05:40:56;;;;;;;3.60;2.83;;;30.80;71.60;;;;;;5029783;28;20409;-82
2022/08/23 05:43:22;;;;;;;4.07;3.30;;;31.90;67.10;;;;;;5027006;28;20558;-82
2022/08/23 05:46:05;;;;;;;3.80;3.00;;;32.90;60.80;;;;;;5028028;28;20417;-82
2022/08/23 05:48:32;;;;;;;7.33;3.23;;;33.50;57.80;;;;;;5041335;28;20469;-82
2022/08/23 05:51:08;;;;;;;5.00;3.20;;;33.40;55.60;;;;;;5020955;28;20744;-83
2022/08/23 05:53:34;;;;;;;4.40;4.00;;;33.40;54.30;;;;;;5024813;28;20449;-84
2022/08/23 05:56:11;;;;;;;4.00;3.70;;;33.50;52.10;;;;;;5025572;28;21050;-82
2022/08/23 05:58:37;;;;;;;4.63;3.43;;;33.50;52.70;;;;;;5025058;28;20409;-83
2022/08/23 06:01:02;;;;;;;5.80;3.93;;;33.60;52.80;;;;;;5026862;28;20475;-83
2022/08/23 06:03:28;;;;;;;4.73;4.30;;;33.30;51.80;;;;;;5027557;28;20183;-83
2022/08/23 06:05:57;;;;;;;5.77;4.57;;;34.70;49.90;;;;;;5026650;28;20200;-82
2022/08/23 06:08:23;;;;;;;5.43;4.20;;;34.70;50.30;;;;;;5027373;28;21290;-83
2022/08/23 06:10:49;;;;;;;6.87;4.10;;;34.40;50.10;;;;;;5026518;28;20470;-82
2022/08/23 06:13:14;;;;;;;9.93;4.73;;;35.00;49.20;;;;;;5028896;28;20227;-83
2022/08/23 06:15:43;;;;;;;5.50;5.00;;;35.40;48.00;;;;;;5027409;28;20427;-83
2022/08/23 06:18:09;;;;;;;5.33;4.93;;;35.50;47.80;;;;;;5024127;28;20196;-82
2022/08/23 06:20:35;;;;;;;11.10;5.97;;;35.50;47.00;;;;;;5024777;28;20416;-83
2022/08/23 06:23:01;;;;;;;5.87;5.43;;;35.20;47.20;;;;;;5026947;28;20689;-81
2022/08/23 06:25:27;;;;;;;16.73;5.17;;;35.40;46.70;;;;;;5041573;28;20423;-83
2022/08/23 06:27:53;;;;;;;5.63;5.10;;;36.30;46.80;;;;;;5025954;28;20195;-85
2022/08/23 06:30:18;;;;;;;6.27;5.77;;;37.10;44.80;;;;;;5024864;28;20434;-83
2022/08/23 06:32:44;;;;;;;7.10;6.33;;;37.00;44.00;;;;;;5022784;28;20213;-84
2022/08/23 06:35:10;;;;;;;7.30;6.77;;;37.60;44.10;;;;;;5022422;28;20186;-84
2022/08/23 06:37:35;;;;;;;8.30;7.60;;;37.70;43.10;;;;;;5024570;28;20255;-83
2022/08/23 06:40:02;;;;;;;9.40;7.97;;;38.10;41.90;;;;;;5020866;28;20519;-82
2022/08/23 06:42:28;;;;;;;8.60;7.90;;;37.70;41.40;;;;;;5025762;28;21020;-82
2022/08/23 06:44:53;;;;;;;9.63;8.80;;;37.90;42.00;;;;;;5027345;28;20458;-82
2022/08/23 06:47:19;;;;;;;10.50;9.60;;;37.70;41.10;;;;;;5024114;28;20213;-84
2022/08/23 06:49:44;;;;;;;12.80;11.90;;;37.80;42.20;;;;;;5027526;28;20261;-84
2022/08/23 06:52:11;;;;;;;14.93;13.47;;;38.90;41.30;;;;;;5029929;28;20200;-84
2022/08/23 06:54:37;;;;;;;14.43;13.37;;;38.40;40.40;;;;;;5029619;28;20592;-84
2022/08/23 06:57:03;;;;;;;13.17;12.37;;;36.90;41.00;;;;;;5026078;28;20452;-84
2022/08/23 06:59:30;;;;;;;13.10;12.10;;;37.30;42.00;;;;;;5037362;28;20403;-84
2022/08/23 07:01:58;;;;;;;11.90;11.10;;;37.70;41.20;;;;;;5026885;28;20607;-83
2022/08/23 07:04:37;;;;;;;11.90;11.10;;;37.20;42.00;;;;;;5027777;28;20408;-84
2022/08/23 07:07:03;;;;;;;13.33;12.47;;;38.00;41.60;;;;;;5031742;28;20446;-84
2022/08/23 07:09:30;;;;;;;13.60;12.70;;;38.50;40.50;;;;;;5041158;28;20446;-84
2022/08/23 07:11:57;;;;;;;13.83;12.77;;;38.00;40.10;;;;;;5027794;28;20511;-84
2022/08/23 07:14:23;;;;;;;14.77;13.53;;;38.70;40.40;;;;;;5026681;28;20474;-81
2022/08/23 07:16:52;;;;;;;17.07;16.00;;;39.30;39.30;;;;;;5032095;28;20447;-84
2022/08/23 07:19:20;;;;;;;18.13;17.03;;;40.20;38.80;;;;;;5027402;28;20513;-84
2022/08/23 07:21:47;;;;;;;20.73;19.40;;;40.20;38.10;;;;;;5030679;28;20447;-84
2022/08/23 07:24:14;;;;;;;18.10;16.80;;;39.70;38.60;;;;;;5027997;28;20439;-82
2022/08/23 07:26:41;;;;;;;16.60;15.70;;;39.90;38.40;;;;;;5035214;28;20761;-82
2022/08/23 07:29:08;;;;;;;21.80;20.50;;;39.70;38.00;;;;;;5041596;28;20413;-82
2022/08/23 07:31:38;;;;;;;19.97;18.77;;;39.90;37.50;;;;;;5040351;28;20414;-82
2022/08/23 07:34:05;;;;;;;20.00;18.80;;;39.00;38.50;;;;;;5028915;28;20460;-82
2022/08/23 07:36:32;;;;;;;16.10;15.10;;;38.00;39.60;;;;;;5031121;28;20451;-82
2022/08/23 07:38:59;;;;;;;12.67;12.00;;;37.80;39.50;;;;;;5028281;28;20492;-82
2022/08/23 07:41:29;;;;;;;15.40;14.50;;;36.70;40.40;;;;;;5023045;28;20427;-82
2022/08/23 07:43:57;;;;;;;15.50;14.50;;;37.40;40.90;;;;;;5022636;28;20398;-82
2022/08/23 07:46:24;;;;;;;14.87;14.07;;;35.60;41.70;;;;;;5020860;28;20559;-81
2022/08/23 07:48:51;;;;;;;14.53;13.63;;;35.00;41.80;;;;;;5021124;28;20472;-82
2022/08/23 07:51:17;;;;;;;14.93;14.03;;;34.70;42.00;;;;;;5024503;28;20419;-82
2022/08/23 07:53:44;;;;;;;13.17;12.17;;;34.10;43.50;;;;;;5031731;28;20795;-81
2022/08/23 07:56:11;;;;;;;9.60;9.00;;;33.80;44.30;;;;;;5027529;28;20450;-82
2022/08/23 07:58:37;;;;;;;11.47;10.77;;;34.00;45.00;;;;;;5021950;28;20411;-82
2022/08/23 08:01:23;;;;;;;13.53;12.70;;;34.60;43.70;;;;;;5021619;28;20412;-80
2022/08/23 08:03:52;;;;;;;13.30;11.73;;;34.90;43.20;;;;;;5021957;28;20170;-82
2022/08/23 08:06:27;;;;;;;13.57;12.77;;;35.30;43.10;;;;;;5021236;28;20424;-82
2022/08/23 08:08:53;;;;;;;14.40;13.60;;;36.70;41.60;;;;;;5021600;28;20440;-82
2022/08/23 08:11:23;;;;;;;16.77;15.03;;;37.10;40.80;;;;;;5022147;28;20894;-82
2022/08/23 08:13:50;;;;;;;16.97;15.87;;;37.00;40.30;;;;;;5025815;28;20199;-82
2022/08/23 08:16:25;;;;;;;14.37;13.47;;;36.50;40.30;;;;;;5029944;28;20443;-82
2022/08/23 08:18:52;;;;;;;15.30;14.40;;;36.50;42.10;;;;;;5021679;28;20419;-82
2022/08/23 08:21:18;;;;;;;15.53;14.50;;;37.40;40.10;;;;;;5021336;28;20403;-81
2022/08/23 08:23:43;;;;;;;16.70;15.90;;;36.90;40.40;;;;;;5022839;28;20405;-82
2022/08/23 08:26:10;;;;;;;17.03;16.07;;;37.70;38.90;;;;;;5022386;28;20419;-82
2022/08/23 08:28:36;;;;;;;18.40;17.07;;;37.60;39.40;;;;;;5020111;28;20184;-82
2022/08/23 08:31:03;;;;;;;18.27;16.90;;;37.70;39.10;;;;;;5022162;28;20445;-82
2022/08/23 08:33:29;;;;;;;19.00;18.10;;;37.90;39.30;;;;;;5021295;28;20455;-80
2022/08/23 08:35:55;;;;;;;18.57;17.10;;;37.50;38.90;;;;;;5020550;28;20413;-82
2022/08/23 08:38:21;;;;;;;18.53;17.47;;;37.50;39.40;;;;;;5022082;28;20454;-83
2022/08/23 08:40:54;;;;;;;18.70;17.80;;;39.00;38.60;;;;;;5019953;28;20778;-82
2022/08/23 08:43:33;;;;;;;21.43;20.33;;;39.80;37.90;;;;;;5023492;28;20174;-82
2022/08/23 08:46:10;;;;;;;24.80;23.40;;;39.40;36.10;;;;;;5028346;28;20465;-82
2022/08/23 08:48:48;;;;;;;23.63;22.27;;;39.40;36.90;;;;;;5025491;28;20424;-82
2022/08/23 08:51:39;;;;;;;24.87;22.90;;;38.10;37.40;;;;;;5031368;28;20411;-82
2022/08/23 08:54:08;;;;;;;23.77;22.27;;;37.50;38.40;;;;;;5025515;28;20970;-82
2022/08/23 08:56:37;;;;;;;22.30;20.93;;;36.70;39.00;;;;;;5024984;28;20428;-82
2022/08/23 08:59:06;;;;;;;23.47;22.00;;;37.30;39.40;;;;;;5033573;28;20411;-82
2022/08/23 09:01:35;;;;;;;23.90;22.67;;;37.60;38.70;;;;;;5034371;28;20426;-83
2022/08/23 09:04:01;;;;;;;24.63;23.03;;;37.00;38.80;;;;;;5043042;28;20451;-81
2022/08/23 09:06:59;;;;;;;26.60;25.03;;;36.90;38.60;;;;;;5037822;28;21216;-82
2022/08/23 09:09:54;;;;;;;21.77;20.57;;;36.80;38.90;;;;;;5042175;28;20417;-82
2022/08/23 09:12:50;;;;;;;22.10;20.97;;;35.70;39.50;;;;;;5035344;28;20469;-82
2022/08/23 09:15:26;;;;;;;22.90;20.47;;;36.50;39.60;;;;;;5044262;28;20403;-82
2022/08/23 09:17:54;;;;;;;24.20;22.67;;;36.00;39.90;;;;;;5033821;28;20469;-82
2022/08/23 09:20:22;;;;;;;23.00;21.80;;;35.60;39.70;;;;;;5031956;28;20441;-82
2022/08/23 09:23:05;;;;;;;21.50;20.40;;;36.50;40.40;;;;;;5028491;28;20897;-82
2022/08/23 09:25:30;;;;;;;22.33;21.07;;;37.30;39.00;;;;;;5026757;28;21095;-83
2022/08/23 09:27:56;;;;;;;16.20;15.30;;;37.40;38.70;;;;;;5026020;28;20460;-84
2022/08/23 09:30:49;;;;;;;17.13;16.03;;;38.70;37.60;;;;;;5027593;28;20181;-85
2022/08/23 09:33:36;;;;;;;17.93;16.73;;;39.70;36.50;;;;;;5021471;28;20209;-84
2022/08/23 09:36:14;;;;;;;17.90;17.03;;;39.80;34.50;;;;;;5023900;28;21208;-84
2022/08/23 09:38:53;;;;;;;19.63;18.37;;;39.60;35.00;;;;;;5034488;28;20415;-84
2022/08/23 09:41:26;;;;;;;18.73;17.70;;;38.80;35.80;;;;;;5039654;28;20381;-85
2022/08/23 09:43:54;;;;;;;18.57;17.57;;;37.20;36.60;;;;;;5037720;28;20760;-85
2022/08/23 09:46:29;;;;;;;19.40;18.30;;;36.70;37.20;;;;;;5039066;28;20433;-85
2022/08/23 09:49:00;;;;;;;19.93;18.83;;;37.20;36.10;;;;;;5039105;28;20430;-85
2022/08/23 09:51:33;;;;;;;18.30;17.23;;;36.50;36.40;;;;;;5037909;28;20417;-85
2022/08/23 09:54:18;;;;;;;17.87;16.97;;;36.60;36.70;;;;;;5026404;28;21130;-85
2022/08/23 09:56:54;;;;;;;21.17;20.00;;;37.10;35.60;;;;;;5028146;28;21006;-85
2022/08/23 09:59:39;;;;;;;20.23;18.80;;;38.20;34.90;;;;;;5028136;28;20511;-85
2022/08/23 10:02:14;;;;;;;19.20;18.23;;;39.70;32.50;;;;;;5036780;28;20604;-84
2022/08/23 10:05:06;;;;;;;20.60;19.47;;;40.20;31.60;;;;;;5035042;28;20419;-85
2022/08/23 10:07:37;;;;;;;19.00;18.20;;;39.90;31.00;;;;;;5023410;28;20433;-85
2022/08/23 10:10:12;;;;;;;20.27;18.53;;;38.90;30.90;;;;;;5035050;28;20895;-85
2022/08/23 10:12:38;;;;;;;19.37;18.20;;;38.90;31.50;;;;;;5039668;28;20415;-85
2022/08/23 10:15:05;;;;;;;19.70;18.60;;;38.90;31.00;;;;;;5039601;28;20417;-84
2022/08/23 10:17:48;;;;;;;19.77;18.80;;;37.90;31.30;;;;;;5034201;28;20198;-85
2022/08/23 10:20:34;;;;;;;18.30;16.90;;;36.70;32.30;;;;;;5031275;28;20445;-83
2022/08/23 10:23:40;;;;;;;17.07;16.27;;;35.90;33.80;;;;;;5043690;28;20422;-83
2022/08/23 10:26:09;;;;;;;15.03;14.00;;;33.30;36.00;;;;;;5043977;28;20466;-83
2022/08/23 10:32:02;;;;;;;11.80;10.83;;;32.30;37.10;;;;;;5040588;28;20509;-82
2022/08/23 10:34:45;;;;;;;12.13;11.03;;;31.50;38.30;;;;;;5038850;28;20464;-82
2022/08/23 10:37:49;;;;;;;9.93;9.33;;;31.40;39.10;;;;;;5033988;28;20498;-82
2022/08/23 10:40:24;;;;;;;13.97;10.07;;;31.20;38.80;;;;;;5020928;28;20579;-82
2022/08/23 10:43:42;;;;;;;9.57;8.60;;;30.70;39.10;;;;;;5022752;28;20419;-83
2022/08/23 10:46:09;;;;;;;8.90;8.20;;;30.10;39.60;;;;;;5011053;28;20424;-82
2022/08/23 10:48:47;;;;;;;8.73;8.00;;;30.10;40.30;;;;;;5023417;28;20406;-82
2022/08/23 10:51:30;;;;;;;8.20;7.70;;;30.30;40.50;;;;;;5023952;28;20435;-82
2022/08/23 10:54:12;;;;;;;7.37;6.90;;;30.50;40.30;;;;;;5033151;28;20806;-82
2022/08/23 10:56:38;;;;;;;11.03;10.40;;;30.80;39.20;;;;;;5034650;28;20479;-82
2022/08/23 10:59:14;;;;;;;8.67;8.20;;;30.80;39.20;;;;;;5042544;28;20773;-82
2022/08/23 11:01:52;;;;;;;9.00;8.20;;;30.50;38.80;;;;;;5046279;28;20417;-82
2022/08/23 11:04:25;;;;;;;9.43;8.73;;;30.50;38.00;;;;;;5025089;28;20420;-82
2022/08/23 11:07:00;;;;;;;12.50;11.80;;;30.30;37.30;;;;;;5023374;28;20436;-82
2022/08/23 11:09:25;;;;;;;10.80;10.20;;;30.20;38.30;;;;;;5023403;28;20397;-82
2022/08/23 11:12:14;;;;;;;18.50;11.40;;;30.30;38.50;;;;;;5025180;28;20436;-81
2022/08/23 11:15:02;;;;;;;11.27;10.57;;;30.70;39.50;;;;;;5028540;28;20183;-81
2022/08/23 11:17:51;;;;;;;11.83;10.93;;;30.90;38.10;;;;;;5041459;28;20440;-80
2022/08/23 11:20:47;;;;;;;11.03;10.10;;;30.80;38.10;;;;;;5042163;28;20401;-82
2022/08/23 11:23:14;;;;;;;11.50;10.70;;;30.50;37.60;;;;;;5041368;28;20468;-82
2022/08/23 11:25:42;;;;;;;13.90;12.90;;;30.60;36.70;;;;;;5042158;28;20895;-82
2022/08/23 11:28:25;;;;;;;9.13;8.23;;;30.60;37.20;;;;;;5041250;28;20436;-82
2022/08/23 11:31:07;;;;;;;10.77;9.97;;;30.60;36.30;;;;;;5039922;28;21086;-82
2022/08/23 11:33:47;;;;;;;10.10;9.60;;;30.70;38.10;;;;;;5040308;28;20449;-82
2022/08/23 11:36:20;;;;;;;12.17;9.40;;;30.70;38.40;;;;;;5036430;28;20442;-82
2022/08/23 11:38:45;;;;;;;11.37;10.67;;;30.40;38.60;;;;;;5027180;28;20516;-82
2022/08/23 11:41:29;;;;;;;7.83;7.23;;;30.40;39.00;;;;;;5034438;28;20460;-82
2022/08/23 11:43:54;;;;;;;10.27;7.90;;;30.50;39.40;;;;;;5039503;28;20185;-82
2022/08/23 11:46:56;;;;;;;8.93;8.33;;;30.50;38.70;;;;;;5040588;28;20424;-81
2022/08/23 11:49:30;;;;;;;5.50;5.03;;;30.40;39.30;;;;;;5035117;28;20197;-82
2022/08/23 11:52:28;;;;;;;9.10;8.50;;;30.50;39.10;;;;;;5048086;28;20515;-82
2022/08/23 11:55:16;;;;;;;7.23;6.77;;;30.70;39.60;;;;;;5027135;28;20540;-82
2022/08/23 11:58:16;;;;;;;8.93;8.40;;;30.90;38.70;;;;;;5031636;28;20429;-81
2022/08/23 12:01:11;;;;;;;8.00;7.40;;;31.20;38.70;;;;;;5027653;28;20410;-82
2022/08/23 12:04:08;;;;;;;8.50;8.00;;;31.30;38.10;;;;;;5020473;28;20406;-82
2022/08/23 12:06:41;;;;;;;5.40;4.97;;;31.30;37.60;;;;;;5020705;28;20461;-82
2022/08/23 12:09:34;;;;;;;5.87;5.40;;;31.00;38.00;;;;;;5020566;28;20400;-82
2022/08/23 12:12:00;;;;;;;5.90;5.40;;;30.80;38.30;;;;;;5019709;28;20479;-82
2022/08/23 12:14:44;;;;;;;5.00;4.70;;;30.60;38.30;;;;;;5021034;28;20476;-82
2022/08/23 12:17:29;;;;;;;6.67;5.20;;;30.50;37.90;;;;;;5019454;28;20421;-81
2022/08/23 12:20:09;;;;;;;5.30;5.00;;;30.80;38.30;;;;;;5025628;28;20419;-84
2022/08/23 12:23:05;;;;;;;5.10;4.70;;;31.00;36.80;;;;;;5024943;28;20433;-82
2022/08/23 12:25:31;;;;;;;6.20;5.60;;;31.00;37.30;;;;;;5019917;28;20487;-83
2022/08/23 12:28:01;;;;;;;7.93;7.33;;;31.10;37.30;;;;;;5027824;28;20930;-83
2022/08/23 12:30:37;;;;;;;6.17;5.50;;;31.30;37.10;;;;;;5026727;28;20175;-83
2022/08/23 12:33:21;;;;;;;13.00;12.37;;;31.00;37.40;;;;;;5020758;28;20441;-83
2022/08/23 12:35:47;;;;;;;5.60;5.10;;;;;;;;;;5019591;28;20400;-83
2022/08/23 12:38:26;;;;;;;8.87;7.50;;;31.00;36.50;;;;;;5018984;28;20460;-82
2022/08/23 12:40:53;;;;;;;8.47;7.57;;;31.20;38.10;;;;;;5026067;28;20456;-83
2022/08/23 12:43:21;;;;;;;9.80;9.30;;;31.20;37.40;;;;;;5021784;28;20949;-83
2022/08/23 12:45:51;;;;;;;9.47;8.63;;;31.10;37.10;;;;;;5023597;28;20446;-83
2022/08/23 12:48:21;;;;;;;7.93;7.23;;;31.20;37.50;;;;;;5025968;28;20440;-83
2022/08/23 12:50:59;;;;;;;9.70;9.00;;;31.10;37.50;;;;;;5025799;28;20930;-84
2022/08/23 12:53:29;;;;;;;8.40;7.90;;;31.00;37.60;;;;;;5024816;28;20452;-84
2022/08/23 12:56:02;;;;;;;10.27;9.40;;;31.10;36.80;;;;;;5029783;28;20397;-84
2022/08/23 12:58:30;;;;;;;8.40;7.80;;;31.20;37.30;;;;;;5038749;28;20448;-83
2022/08/23 13:00:59;;;;;;;9.60;9.10;;;31.40;37.30;;;;;;5030724;28;20400;-83
2022/08/23 13:03:29;;;;;;;11.80;11.17;;;31.60;36.40;;;;;;5023839;28;20439;-83
2022/08/23 13:05:59;;;;;;;10.93;9.83;;;31.80;35.50;;;;;;5025558;28;20494;-83
2022/08/23 13:08:45;;;;;;;12.40;11.63;;;31.70;35.90;;;;;;5022194;28;20437;-83
2022/08/23 13:11:13;;;;;;;13.77;12.53;;;31.90;35.60;;;;;;5024662;28;21102;-84